createdAt,value
2023-01-22T00:02:12.860Z,15.63
2023-01-22T00:07:09.280Z,18.00
2023-01-22T00:12:05.767Z,18.50
2023-01-22T00:17:02.161Z,18.77
2023-01-22T00:21:58.501Z,20.13
2023-01-22T00:26:54.791Z,19.17
2023-01-22T00:31:51.592Z,16.45
2023-01-22T00:36:47.944Z,19.10
2023-01-22T00:41:44.328Z,16.40
2023-01-22T00:46:40.676Z,21.25
2023-01-22T00:51:39.264Z,21.73
2023-01-22T00:56:35.702Z,18.98
2023-01-22T01:01:32.161Z,18.42
2023-01-22T01:06:28.666Z,17.70
2023-01-22T01:11:26.015Z,20.65
2023-01-22T01:16:26.429Z,19.00
2023-01-22T01:21:22.975Z,16.55
2023-01-22T01:26:19.410Z,23.42
2023-01-22T01:31:16.856Z,20.52
2023-01-22T01:36:15.934Z,18.50
2023-01-22T01:41:16.332Z,22.02
2023-01-22T01:46:20.221Z,18.08
2023-01-22T01:51:25.681Z,17.75
2023-01-22T01:56:30.437Z,18.52
2023-01-22T02:01:27.572Z,16.13
2023-01-22T02:06:23.891Z,18.50
2023-01-22T02:11:21.817Z,16.27
2023-01-22T02:16:18.927Z,16.85
2023-01-22T02:21:35.818Z,16.20
2023-01-22T02:26:32.267Z,16.30
2023-01-22T02:31:28.715Z,14.85
2023-01-22T02:36:25.052Z,18.58
2023-01-22T02:41:21.841Z,15.10
2023-01-22T02:46:18.809Z,17.95
2023-01-22T02:51:15.184Z,13.15
2023-01-22T02:56:11.862Z,16.20
2023-01-22T03:01:18.976Z,17.60
2023-01-22T03:06:15.877Z,14.48
2023-01-22T03:11:12.192Z,15.50
2023-01-22T03:16:27.210Z,13.52
2023-01-22T03:21:23.862Z,14.30
2023-01-22T03:26:22.785Z,15.45
2023-01-22T03:36:15.596Z,11.98
2023-01-22T03:41:14.652Z,12.02
2023-01-22T03:46:13.409Z,12.13
2023-01-22T03:51:16.279Z,9.68
2023-01-22T03:56:18.266Z,11.70
2023-01-22T04:01:18.038Z,11.13
2023-01-22T04:06:15.184Z,10.20
2023-01-22T04:11:12.053Z,11.50
2023-01-22T04:16:09.670Z,10.25
2023-01-22T04:21:05.987Z,13.15
2023-01-22T04:26:02.467Z,9.07
2023-01-22T04:30:59.657Z,12.68
2023-01-22T04:35:56.139Z,10.93
2023-01-22T04:40:52.818Z,11.77
2023-01-22T04:45:51.343Z,11.82
2023-01-22T04:50:47.739Z,11.80
2023-01-22T04:55:44.036Z,13.07
2023-01-22T05:00:40.322Z,13.48
2023-01-22T05:05:36.627Z,11.52
2023-01-22T05:10:32.934Z,11.75
2023-01-22T05:15:29.385Z,11.98
2023-01-22T05:20:26.309Z,11.57
2023-01-22T05:25:22.655Z,11.20
2023-01-22T05:30:19.582Z,11.05
2023-01-22T05:35:16.155Z,10.48
2023-01-22T05:40:12.940Z,11.00
2023-01-22T05:45:10.202Z,8.95
2023-01-22T05:50:07.024Z,9.80
2023-01-22T05:55:03.516Z,8.90
2023-01-22T05:59:59.806Z,8.18
2023-01-22T06:04:56.481Z,10.43
2023-01-22T06:09:52.795Z,8.77
2023-01-22T06:14:49.400Z,10.43
2023-01-22T06:19:45.686Z,9.93
2023-01-22T06:24:42.028Z,8.10
2023-01-22T06:29:40.148Z,9.15
2023-01-22T06:34:38.230Z,9.65
2023-01-22T06:39:34.585Z,9.18
2023-01-22T06:44:30.936Z,13.10
2023-01-22T06:49:27.308Z,10.45
2023-01-22T06:54:23.604Z,9.57
2023-01-22T06:59:20.144Z,14.18
2023-01-22T07:04:16.546Z,8.80
2023-01-22T07:09:12.847Z,14.43
2023-01-22T07:14:09.222Z,11.60
2023-01-22T07:19:05.509Z,12.20
2023-01-22T07:24:01.923Z,13.88
2023-01-22T07:28:58.313Z,9.02
2023-01-22T07:33:54.756Z,10.88
2023-01-22T07:38:51.026Z,12.48
2023-01-22T07:43:49.268Z,13.73
2023-01-22T07:48:46.000Z,10.47
2023-01-22T07:53:42.752Z,13.52
2023-01-22T07:58:41.837Z,13.65
2023-01-22T08:03:39.601Z,12.68
2023-01-22T08:08:36.066Z,13.82
2023-01-22T08:13:32.634Z,16.65
2023-01-22T08:18:29.086Z,16.40
2023-01-22T08:23:25.453Z,13.25
2023-01-22T08:28:22.131Z,14.98
2023-01-22T08:33:18.958Z,14.95
2023-01-22T08:38:15.374Z,17.50
2023-01-22T08:43:11.725Z,16.40
2023-01-22T08:48:08.218Z,16.90
2023-01-22T08:53:04.908Z,19.02
2023-01-22T08:58:01.322Z,19.73
2023-01-22T09:02:59.726Z,17.75
2023-01-22T09:07:56.359Z,12.60
2023-01-22T09:12:52.746Z,17.98
2023-01-22T09:17:49.103Z,16.98
2023-01-22T09:22:46.725Z,17.77
2023-01-22T09:27:43.323Z,13.13
2023-01-22T09:32:40.257Z,15.85
2023-01-22T09:37:36.611Z,15.10
2023-01-22T09:42:37.638Z,18.90
2023-01-22T09:47:40.630Z,14.45
2023-01-22T09:52:39.329Z,17.17
2023-01-22T09:57:35.983Z,14.55
2023-01-22T10:02:40.677Z,15.90
2023-01-22T10:07:41.359Z,16.90
2023-01-22T10:12:37.689Z,16.48
2023-01-22T10:17:35.472Z,20.55
2023-01-22T10:22:31.840Z,16.08
2023-01-22T10:27:39.384Z,16.65
2023-01-22T10:32:35.730Z,18.95
2023-01-22T10:37:45.007Z,19.40
2023-01-22T10:42:41.665Z,19.00
2023-01-22T10:47:38.085Z,17.00
2023-01-22T10:52:48.860Z,17.48
2023-01-22T10:57:51.518Z,18.70
2023-01-22T11:02:50.245Z,19.30
2023-01-22T11:07:51.843Z,20.02
2023-01-22T11:12:54.447Z,18.40
2023-01-22T11:17:57.722Z,15.40
2023-01-22T11:23:03.086Z,18.27
2023-01-22T11:28:15.810Z,14.55
2023-01-22T11:33:19.261Z,16.08
2023-01-22T11:38:51.870Z,17.67
2023-01-22T11:43:55.717Z,16.25
2023-01-22T11:49:19.609Z,15.88
2023-01-22T11:54:32.461Z,20.45
2023-01-22T11:59:50.580Z,17.30
2023-01-22T12:05:14.951Z,16.17
2023-01-22T12:11:00.213Z,19.23
2023-01-22T12:16:10.858Z,20.17
2023-01-22T12:21:50.889Z,25.05
2023-01-22T12:26:56.768Z,17.35
2023-01-22T12:32:05.264Z,22.20
2023-01-22T12:37:04.205Z,19.33
2023-01-22T12:47:20.932Z,20.45
2023-01-22T12:52:39.418Z,25.98
2023-01-22T12:57:41.357Z,21.70
2023-01-22T13:02:38.886Z,22.38
2023-01-22T13:07:37.563Z,30.90
2023-01-22T13:12:45.527Z,22.88
2023-01-22T13:17:42.014Z,19.70
2023-01-22T13:22:38.441Z,24.33
2023-01-22T13:27:36.304Z,23.23
2023-01-22T13:32:32.658Z,25.75
2023-01-22T13:37:30.792Z,26.13
2023-01-22T13:42:27.785Z,23.13
2023-01-22T13:47:34.324Z,28.60
2023-01-22T13:52:33.078Z,22.00
2023-01-22T13:57:29.431Z,27.33
2023-01-22T14:02:31.646Z,25.17
2023-01-22T14:07:33.565Z,26.17
2023-01-22T14:12:30.417Z,27.23
2023-01-22T14:17:26.840Z,26.98
2023-01-22T14:22:24.273Z,23.60
2023-01-22T14:27:22.635Z,22.35
2023-01-22T14:32:19.198Z,27.75
2023-01-22T14:37:16.332Z,26.80
2023-01-22T14:42:12.817Z,24.65
2023-01-22T14:47:09.169Z,32.53
2023-01-22T14:52:05.599Z,29.52
2023-01-22T14:57:03.413Z,29.20
2023-01-22T15:01:59.852Z,30.17
2023-01-22T15:06:56.309Z,23.15
2023-01-22T15:11:52.626Z,24.33
2023-01-22T15:16:49.076Z,25.48
2023-01-22T15:21:46.312Z,31.98
2023-01-22T15:26:42.614Z,21.90
2023-01-22T15:31:39.538Z,23.30
2023-01-22T15:36:39.442Z,26.00
2023-01-22T15:41:37.084Z,29.95
2023-01-22T15:46:35.871Z,22.85
2023-01-22T15:51:32.275Z,28.10
2023-01-22T15:56:31.736Z,25.88
2023-01-22T16:01:29.224Z,22.83
2023-01-22T16:06:28.039Z,22.88
2023-01-22T16:11:26.507Z,23.38
2023-01-22T16:16:25.925Z,23.48
2023-01-22T16:21:23.055Z,24.00
2023-01-22T16:26:23.010Z,23.73
2023-01-22T16:31:23.291Z,22.15
2023-01-22T16:36:21.639Z,25.17
2023-01-22T16:41:28.063Z,19.77
2023-01-22T16:46:26.656Z,29.90
2023-01-22T16:51:25.146Z,31.23
2023-01-22T16:56:21.705Z,21.52
2023-01-22T17:01:18.268Z,24.65
2023-01-22T17:06:22.640Z,26.35
2023-01-22T17:11:19.455Z,25.45
2023-01-22T17:16:16.299Z,23.63
2023-01-22T17:21:15.592Z,20.98
2023-01-22T17:26:14.283Z,24.20
2023-01-22T17:31:15.247Z,22.88
2023-01-22T17:36:13.392Z,23.67
2023-01-22T17:41:18.575Z,27.67
2023-01-22T17:46:17.214Z,24.08
2023-01-22T17:51:16.765Z,28.70
2023-01-22T17:56:20.295Z,28.23
2023-01-22T18:01:19.157Z,28.73
2023-01-22T18:11:15.041Z,28.60
2023-01-22T18:16:14.014Z,29.33
2023-01-22T18:21:14.421Z,27.13
2023-01-22T18:26:11.571Z,28.05
2023-01-22T18:31:14.730Z,25.15
2023-01-22T18:36:16.370Z,23.75
2023-01-22T18:41:15.266Z,26.90
2023-01-22T18:51:12.987Z,31.23
2023-01-22T18:56:11.477Z,28.65
2023-01-22T19:01:19.817Z,27.73
2023-01-22T19:06:18.985Z,21.45
2023-01-22T19:11:16.375Z,22.13
2023-01-22T19:16:15.423Z,23.15
2023-01-22T19:21:17.885Z,21.27
2023-01-22T19:26:21.183Z,23.73
2023-01-22T19:31:24.527Z,24.77
2023-01-22T19:36:23.015Z,24.33
2023-01-22T19:41:19.761Z,24.75
2023-01-22T19:46:16.146Z,28.45
2023-01-22T19:51:15.105Z,25.35
2023-01-22T20:01:13.614Z,25.67
2023-01-22T20:06:12.798Z,27.27
2023-01-22T20:11:11.045Z,28.08
2023-01-22T20:16:17.096Z,27.60
2023-01-22T20:21:14.450Z,24.73
2023-01-22T20:26:11.436Z,25.73
2023-01-22T20:31:12.719Z,23.73
2023-01-22T20:36:15.017Z,29.85
2023-01-22T20:41:12.304Z,29.20
2023-01-22T20:46:12.480Z,29.35
2023-01-22T20:51:15.614Z,21.63
2023-01-22T20:56:14.569Z,26.92
2023-01-22T21:01:18.870Z,28.63
2023-01-22T21:06:18.771Z,29.20
2023-01-22T21:11:17.959Z,26.20
2023-01-22T21:16:17.119Z,28.00
2023-01-22T21:21:17.857Z,25.02
2023-01-22T21:26:16.266Z,23.55
2023-01-22T21:31:14.711Z,25.83
2023-01-22T21:36:12.474Z,29.75
2023-01-22T21:41:12.483Z,21.83
2023-01-22T21:46:21.924Z,22.15
2023-01-22T21:51:19.021Z,28.85
2023-01-22T21:56:15.453Z,21.80
2023-01-22T22:01:15.288Z,24.92
2023-01-22T22:06:13.346Z,25.58
2023-01-22T22:11:10.937Z,19.27
2023-01-22T22:16:08.682Z,25.63
2023-01-22T22:21:08.131Z,25.10
2023-01-22T22:26:06.774Z,30.83
2023-01-22T22:31:13.821Z,24.85
2023-01-22T22:36:12.099Z,24.55
2023-01-22T22:41:13.614Z,27.95
2023-01-22T22:46:16.705Z,26.95
2023-01-22T22:51:19.962Z,24.80
2023-01-22T22:56:16.324Z,22.45
2023-01-22T23:01:15.519Z,23.02
2023-01-22T23:06:15.110Z,26.75
2023-01-22T23:11:14.479Z,25.00
2023-01-22T23:16:14.877Z,22.67
2023-01-22T23:21:14.495Z,23.23
2023-01-22T23:26:14.440Z,21.92
2023-01-22T23:31:13.225Z,25.52
2023-01-22T23:36:14.814Z,25.92
2023-01-22T23:41:16.158Z,22.70
2023-01-22T23:46:16.444Z,25.25
2023-01-22T23:51:14.712Z,23.27
2023-01-22T23:56:12.453Z,25.65
